sensor_id;sensor_type;location;lat;lon;timestamp;pressure;altitude;pressure_sealevel;temperature;humidity
82728;BME280;72459;50.110;8.750;2023-12-22T00:01:07;99190.72;;;5.02;91.02
82728;BME280;72459;50.110;8.750;2023-12-22T00:03:33;99203.84;;;5.05;91.31
82728;BME280;72459;50.110;8.750;2023-12-22T00:05:58;99201.38;;;5.08;89.07
82728;BME280;72459;50.110;8.750;2023-12-22T00:08:24;99229.28;;;5.12;90.16
82728;BME280;72459;50.110;8.750;2023-12-22T00:10:49;99227.75;;;5.17;91.64
82728;BME280;72459;50.110;8.750;2023-12-22T00:13:15;99209.75;;;5.22;89.59
82728;BME280;72459;50.110;8.750;2023-12-22T00:15:40;99227.16;;;5.23;90.08
82728;BME280;72459;50.110;8.750;2023-12-22T00:18:07;99234.19;;;5.25;88.61
82728;BME280;72459;50.110;8.750;2023-12-22T00:20:33;99264.97;;;5.35;90.36
82728;BME280;72459;50.110;8.750;2023-12-22T00:22:59;99237.16;;;5.34;89.81
82728;BME280;72459;50.110;8.750;2023-12-22T00:25:24;99251.84;;;5.32;91.00
82728;BME280;72459;50.110;8.750;2023-12-22T00:27:50;99240.41;;;5.29;91.28
82728;BME280;72459;50.110;8.750;2023-12-22T00:30:15;99250.66;;;5.24;91.95
82728;BME280;72459;50.110;8.750;2023-12-22T00:32:41;99247.81;;;5.20;91.86
82728;BME280;72459;50.110;8.750;2023-12-22T00:35:06;99241.59;;;5.16;91.66
82728;BME280;72459;50.110;8.750;2023-12-22T00:37:32;99263.22;;;5.14;91.68
82728;BME280;72459;50.110;8.750;2023-12-22T00:39:57;99253.31;;;5.05;90.95
82728;BME280;72459;50.110;8.750;2023-12-22T00:42:22;99240.25;;;5.03;91.76
82728;BME280;72459;50.110;8.750;2023-12-22T00:44:48;99245.44;;;5.03;92.98
82728;BME280;72459;50.110;8.750;2023-12-22T00:47:13;99244.56;;;5.03;92.85
82728;BME280;72459;50.110;8.750;2023-12-22T00:49:38;99247.88;;;4.99;92.55
82728;BME280;72459;50.110;8.750;2023-12-22T00:52:04;99238.34;;;4.99;92.86
82728;BME280;72459;50.110;8.750;2023-12-22T00:54:29;99240.88;;;4.98;89.65
82728;BME280;72459;50.110;8.750;2023-12-22T00:56:57;99231.53;;;5.03;91.11
82728;BME280;72459;50.110;8.750;2023-12-22T00:59:22;99226.44;;;5.06;91.92
82728;BME280;72459;50.110;8.750;2023-12-22T01:01:47;99236.16;;;5.10;87.45
82728;BME280;72459;50.110;8.750;2023-12-22T01:04:13;99249.47;;;5.18;91.33
82728;BME280;72459;50.110;8.750;2023-12-22T01:06:38;99258.34;;;5.21;92.82
82728;BME280;72459;50.110;8.750;2023-12-22T01:09:04;99264.50;;;5.23;92.01
82728;BME280;72459;50.110;8.750;2023-12-22T01:11:29;99272.44;;;5.26;91.49
82728;BME280;72459;50.110;8.750;2023-12-22T01:13:55;99276.81;;;5.27;92.38
82728;BME280;72459;50.110;8.750;2023-12-22T01:16:20;99274.16;;;5.26;89.47
82728;BME280;72459;50.110;8.750;2023-12-22T01:18:47;99279.53;;;5.30;92.53
82728;BME280;72459;50.110;8.750;2023-12-22T01:21:13;99287.47;;;5.33;93.71
82728;BME280;72459;50.110;8.750;2023-12-22T01:23:38;99293.63;;;5.35;94.02
82728;BME280;72459;50.110;8.750;2023-12-22T01:26:03;99334.44;;;5.35;93.43
82728;BME280;72459;50.110;8.750;2023-12-22T01:28:30;99386.53;;;5.35;92.95
82728;BME280;72459;50.110;8.750;2023-12-22T01:30:55;99375.84;;;5.29;93.20
82728;BME280;72459;50.110;8.750;2023-12-22T01:33:21;99365.94;;;5.20;93.12
82728;BME280;72459;50.110;8.750;2023-12-22T01:35:46;99372.84;;;4.99;92.96
82728;BME280;72459;50.110;8.750;2023-12-22T01:38:11;99378.34;;;4.86;93.40
82728;BME280;72459;50.110;8.750;2023-12-22T01:40:37;99372.63;;;4.73;93.53
82728;BME280;72459;50.110;8.750;2023-12-22T01:43:02;99358.25;;;4.62;94.29
82728;BME280;72459;50.110;8.750;2023-12-22T01:45:27;99371.66;;;4.52;94.19
82728;BME280;72459;50.110;8.750;2023-12-22T01:47:53;99369.41;;;4.40;93.86
82728;BME280;72459;50.110;8.750;2023-12-22T01:50:21;99359.88;;;4.41;94.62
82728;BME280;72459;50.110;8.750;2023-12-22T01:52:47;99355.50;;;4.40;94.32
82728;BME280;72459;50.110;8.750;2023-12-22T01:55:13;99356.31;;;4.39;94.49
82728;BME280;72459;50.110;8.750;2023-12-22T01:57:40;99368.16;;;4.32;94.93
82728;BME280;72459;50.110;8.750;2023-12-22T02:00:08;99369.88;;;4.32;94.41
82728;BME280;72459;50.110;8.750;2023-12-22T02:02:33;99363.38;;;4.22;93.22
82728;BME280;72459;50.110;8.750;2023-12-22T02:04:59;99383.78;;;4.32;94.73
82728;BME280;72459;50.110;8.750;2023-12-22T02:07:24;99375.34;;;4.38;94.01
82728;BME280;72459;50.110;8.750;2023-12-22T02:09:50;99387.41;;;4.36;94.22
82728;BME280;72459;50.110;8.750;2023-12-22T02:12:15;99364.69;;;4.32;94.58
82728;BME280;72459;50.110;8.750;2023-12-22T02:14:41;99350.84;;;4.33;93.52
82728;BME280;72459;50.110;8.750;2023-12-22T02:17:43;99346.69;;;4.36;94.08
82728;BME280;72459;50.110;8.750;2023-12-22T02:20:11;99341.34;;;4.33;93.53
82728;BME280;72459;50.110;8.750;2023-12-22T02:22:36;99355.38;;;4.37;93.96
82728;BME280;72459;50.110;8.750;2023-12-22T02:25:02;99347.56;;;4.37;92.56
82728;BME280;72459;50.110;8.750;2023-12-22T02:32:51;99359.63;;;4.35;94.04
82728;BME280;72459;50.110;8.750;2023-12-22T02:35:21;99356.06;;;4.33;93.64
82728;BME280;72459;50.110;8.750;2023-12-22T02:37:49;99351.94;;;4.38;94.20
82728;BME280;72459;50.110;8.750;2023-12-22T02:40:15;99349.06;;;4.32;93.02
82728;BME280;72459;50.110;8.750;2023-12-22T02:42:41;99364.81;;;4.35;94.14
82728;BME280;72459;50.110;8.750;2023-12-22T02:45:13;99374.41;;;4.36;93.46
82728;BME280;72459;50.110;8.750;2023-12-22T02:47:39;99371.13;;;4.40;94.45
82728;BME280;72459;50.110;8.750;2023-12-22T02:50:05;99377.28;;;4.42;93.79
82728;BME280;72459;50.110;8.750;2023-12-22T02:52:30;99358.94;;;4.39;93.41
82728;BME280;72459;50.110;8.750;2023-12-22T02:54:57;99346.53;;;4.33;93.74
82728;BME280;72459;50.110;8.750;2023-12-22T02:57:23;99347.97;;;4.27;93.44
82728;BME280;72459;50.110;8.750;2023-12-22T02:59:48;99343.47;;;4.23;94.41
82728;BME280;72459;50.110;8.750;2023-12-22T03:02:14;99349.06;;;4.12;92.63
82728;BME280;72459;50.110;8.750;2023-12-22T03:04:39;99351.81;;;4.16;94.35
82728;BME280;72459;50.110;8.750;2023-12-22T03:07:05;99355.91;;;4.10;94.71
82728;BME280;72459;50.110;8.750;2023-12-22T03:09:30;99350.56;;;4.07;94.08
82728;BME280;72459;50.110;8.750;2023-12-22T03:11:57;99359.13;;;4.05;94.10
82728;BME280;72459;50.110;8.750;2023-12-22T03:14:28;99347.03;;;4.05;94.01
82728;BME280;72459;50.110;8.750;2023-12-22T03:16:56;99349.06;;;4.12;94.73
82728;BME280;72459;50.110;8.750;2023-12-22T03:19:23;99348.53;;;4.20;95.20
82728;BME280;72459;50.110;8.750;2023-12-22T03:21:52;99334.84;;;4.24;95.20
82728;BME280;72459;50.110;8.750;2023-12-22T03:24:17;99346.13;;;4.24;92.67
82728;BME280;72459;50.110;8.750;2023-12-22T03:26:47;99356.94;;;4.33;93.22
82728;BME280;72459;50.110;8.750;2023-12-22T03:29:13;99356.13;;;4.34;91.53
82728;BME280;72459;50.110;8.750;2023-12-22T03:31:38;99346.81;;;4.39;90.51
82728;BME280;72459;50.110;8.750;2023-12-22T03:34:03;99336.34;;;4.38;90.38
82728;BME280;72459;50.110;8.750;2023-12-22T03:36:29;99335.25;;;4.33;91.60
82728;BME280;72459;50.110;8.750;2023-12-22T03:38:54;99347.28;;;4.31;91.56
82728;BME280;72459;50.110;8.750;2023-12-22T03:41:20;99348.88;;;4.27;90.81
82728;BME280;72459;50.110;8.750;2023-12-22T03:43:45;99349.50;;;4.22;93.13
82728;BME280;72459;50.110;8.750;2023-12-22T03:46:10;99352.22;;;4.25;92.32
82728;BME280;72459;50.110;8.750;2023-12-22T03:48:37;99347.09;;;4.26;93.05
82728;BME280;72459;50.110;8.750;2023-12-22T03:51:02;99347.28;;;4.31;94.07
82728;BME280;72459;50.110;8.750;2023-12-22T03:53:28;99348.47;;;4.37;94.41
82728;BME280;72459;50.110;8.750;2023-12-22T03:55:56;99342.91;;;4.49;93.16
82728;BME280;72459;50.110;8.750;2023-12-22T03:58:21;99352.47;;;4.50;91.72
82728;BME280;72459;50.110;8.750;2023-12-22T04:00:47;99333.59;;;4.54;93.90
82728;BME280;72459;50.110;8.750;2023-12-22T04:03:12;99322.38;;;4.55;93.87
82728;BME280;72459;50.110;8.750;2023-12-22T04:05:38;99311.97;;;4.55;93.59
82728;BME280;72459;50.110;8.750;2023-12-22T04:08:04;99317.19;;;4.55;93.65
82728;BME280;72459;50.110;8.750;2023-12-22T04:10:29;99313.75;;;4.56;94.19
82728;BME280;72459;50.110;8.750;2023-12-22T04:12:55;99315.53;;;4.57;94.59
82728;BME280;72459;50.110;8.750;2023-12-22T04:15:20;99311.28;;;4.59;94.75
82728;BME280;72459;50.110;8.750;2023-12-22T04:17:46;99328.75;;;4.62;93.64
82728;BME280;72459;50.110;8.750;2023-12-22T04:20:11;99322.03;;;4.67;94.05
82728;BME280;72459;50.110;8.750;2023-12-22T04:22:37;99326.59;;;4.72;94.63
82728;BME280;72459;50.110;8.750;2023-12-22T04:25:03;99318.16;;;4.78;95.34
82728;BME280;72459;50.110;8.750;2023-12-22T04:27:29;99313.16;;;4.83;94.99
82728;BME280;72459;50.110;8.750;2023-12-22T04:29:54;99327.25;;;4.88;94.09
82728;BME280;72459;50.110;8.750;2023-12-22T04:32:19;99337.72;;;4.89;92.43
82728;BME280;72459;50.110;8.750;2023-12-22T04:34:45;99345.97;;;5.00;94.71
82728;BME280;72459;50.110;8.750;2023-12-22T04:37:10;99343.38;;;5.00;94.34
82728;BME280;72459;50.110;8.750;2023-12-22T04:39:36;99335.75;;;5.04;95.31
82728;BME280;72459;50.110;8.750;2023-12-22T04:42:04;99347.19;;;5.08;95.22
82728;BME280;72459;50.110;8.750;2023-12-22T04:44:29;99352.66;;;5.14;95.05
82728;BME280;72459;50.110;8.750;2023-12-22T04:46:54;99345.47;;;5.08;93.88
82728;BME280;72459;50.110;8.750;2023-12-22T04:49:20;99357.72;;;5.11;93.35
82728;BME280;72459;50.110;8.750;2023-12-22T04:51:45;99343.31;;;5.19;93.99
82728;BME280;72459;50.110;8.750;2023-12-22T04:54:10;99351.13;;;5.19;94.29
82728;BME280;72459;50.110;8.750;2023-12-22T04:56:36;99353.88;;;5.22;94.19
82728;BME280;72459;50.110;8.750;2023-12-22T04:59:01;99356.56;;;5.24;93.56
82728;BME280;72459;50.110;8.750;2023-12-22T05:01:26;99344.47;;;5.26;94.52
82728;BME280;72459;50.110;8.750;2023-12-22T05:03:52;99338.69;;;5.33;94.26
82728;BME280;72459;50.110;8.750;2023-12-22T05:06:19;99343.13;;;5.35;93.25
82728;BME280;72459;50.110;8.750;2023-12-22T05:08:44;99340.72;;;5.40;92.82
82728;BME280;72459;50.110;8.750;2023-12-22T05:11:10;99356.41;;;5.41;93.12
82728;BME280;72459;50.110;8.750;2023-12-22T05:13:35;99369.31;;;5.38;93.54
82728;BME280;72459;50.110;8.750;2023-12-22T05:16:01;99362.19;;;5.34;92.72
82728;BME280;72459;50.110;8.750;2023-12-22T05:18:27;99368.22;;;5.33;93.80
82728;BME280;72459;50.110;8.750;2023-12-22T05:20:52;99365.94;;;5.20;92.61
82728;BME280;72459;50.110;8.750;2023-12-22T05:23:18;99364.38;;;5.24;94.43
82728;BME280;72459;50.110;8.750;2023-12-22T05:25:44;99370.34;;;5.21;94.02
82728;BME280;72459;50.110;8.750;2023-12-22T05:28:10;99362.59;;;5.23;93.94
82728;BME280;72459;50.110;8.750;2023-12-22T05:30:35;99361.00;;;5.26;93.71
82728;BME280;72459;50.110;8.750;2023-12-22T05:33:01;99368.81;;;5.26;94.35
82728;BME280;72459;50.110;8.750;2023-12-22T05:35:26;99372.25;;;5.25;93.32
82728;BME280;72459;50.110;8.750;2023-12-22T05:37:51;99373.94;;;5.25;94.15
82728;BME280;72459;50.110;8.750;2023-12-22T05:40:17;99363.34;;;5.20;93.60
82728;BME280;72459;50.110;8.750;2023-12-22T05:42:42;99350.94;;;5.15;94.31
82728;BME280;72459;50.110;8.750;2023-12-22T05:45:08;99348.91;;;5.07;94.26
82728;BME280;72459;50.110;8.750;2023-12-22T05:47:36;99352.00;;;4.99;94.43
82728;BME280;72459;50.110;8.750;2023-12-22T05:50:01;99353.91;;;5.03;94.76
82728;BME280;72459;50.110;8.750;2023-12-22T05:52:26;99363.50;;;5.04;95.26
82728;BME280;72459;50.110;8.750;2023-12-22T05:54:52;99380.78;;;5.02;95.33
82728;BME280;72459;50.110;8.750;2023-12-22T05:57:17;99355.50;;;4.99;94.69
82728;BME280;72459;50.110;8.750;2023-12-22T05:59:42;99357.34;;;5.02;94.28
82728;BME280;72459;50.110;8.750;2023-12-22T06:02:08;99357.59;;;5.08;94.39
82728;BME280;72459;50.110;8.750;2023-12-22T06:04:33;99359.63;;;5.15;93.56
82728;BME280;72459;50.110;8.750;2023-12-22T06:07:00;99358.19;;;5.22;92.93
82728;BME280;72459;50.110;8.750;2023-12-22T06:09:25;99360.34;;;5.32;93.67
82728;BME280;72459;50.110;8.750;2023-12-22T06:11:50;99383.16;;;5.37;93.64
82728;BME280;72459;50.110;8.750;2023-12-22T06:14:16;99372.03;;;5.41;93.62
82728;BME280;72459;50.110;8.750;2023-12-22T06:16:41;99357.47;;;5.47;91.12
82728;BME280;72459;50.110;8.750;2023-12-22T06:19:07;99355.13;;;5.53;93.06
82728;BME280;72459;50.110;8.750;2023-12-22T06:21:32;99359.63;;;5.57;93.40
82728;BME280;72459;50.110;8.750;2023-12-22T06:23:58;99368.50;;;5.62;93.92
82728;BME280;72459;50.110;8.750;2023-12-22T06:26:23;99369.00;;;5.74;90.78
82728;BME280;72459;50.110;8.750;2023-12-22T06:28:49;99365.72;;;5.80;93.84
82728;BME280;72459;50.110;8.750;2023-12-22T06:31:19;99374.72;;;5.86;92.11
82728;BME280;72459;50.110;8.750;2023-12-22T06:33:45;99377.38;;;5.88;92.44
82728;BME280;72459;50.110;8.750;2023-12-22T06:36:21;99402.72;;;5.90;92.00
82728;BME280;72459;50.110;8.750;2023-12-22T06:38:48;99401.06;;;5.92;90.98
82728;BME280;72459;50.110;8.750;2023-12-22T06:41:26;99420.63;;;6.03;90.93
82728;BME280;72459;50.110;8.750;2023-12-22T06:43:52;99418.91;;;6.04;92.00
82728;BME280;72459;50.110;8.750;2023-12-22T06:46:19;99415.41;;;6.03;92.04
82728;BME280;72459;50.110;8.750;2023-12-22T06:48:45;99397.28;;;6.07;90.02
82728;BME280;72459;50.110;8.750;2023-12-22T06:53:49;99423.41;;;6.08;92.10
82728;BME280;72459;50.110;8.750;2023-12-22T06:56:34;99413.75;;;6.06;91.02
82728;BME280;72459;50.110;8.750;2023-12-22T06:58:59;99413.56;;;6.01;88.05
82728;BME280;72459;50.110;8.750;2023-12-22T07:03:53;99396.97;;;5.99;89.17
82728;BME280;72459;50.110;8.750;2023-12-22T07:06:20;99390.75;;;5.95;91.62
82728;BME280;72459;50.110;8.750;2023-12-22T07:14:11;99431.66;;;5.96;91.76
82728;BME280;72459;50.110;8.750;2023-12-22T07:16:37;99440.06;;;5.89;92.11
82728;BME280;72459;50.110;8.750;2023-12-22T07:19:03;99444.44;;;5.90;90.05
82728;BME280;72459;50.110;8.750;2023-12-22T07:21:34;99442.91;;;5.95;89.93
82728;BME280;72459;50.110;8.750;2023-12-22T07:24:00;99436.63;;;6.13;91.43
82728;BME280;72459;50.110;8.750;2023-12-22T07:26:26;99464.97;;;6.26;91.49
82728;BME280;72459;50.110;8.750;2023-12-22T07:28:52;99460.72;;;6.50;86.32
82728;BME280;72459;50.110;8.750;2023-12-22T07:31:18;99459.88;;;6.51;89.26
82728;BME280;72459;50.110;8.750;2023-12-22T07:33:43;99470.06;;;6.67;84.55
82728;BME280;72459;50.110;8.750;2023-12-22T07:36:09;99464.84;;;6.67;83.87
82728;BME280;72459;50.110;8.750;2023-12-22T07:38:35;99460.84;;;6.77;86.67
82728;BME280;72459;50.110;8.750;2023-12-22T07:41:01;99457.13;;;6.71;90.48
82728;BME280;72459;50.110;8.750;2023-12-22T07:43:28;99472.78;;;6.71;89.11
82728;BME280;72459;50.110;8.750;2023-12-22T07:45:54;99486.25;;;6.81;91.19
82728;BME280;72459;50.110;8.750;2023-12-22T07:48:20;99471.03;;;6.93;90.32
82728;BME280;72459;50.110;8.750;2023-12-22T07:50:45;99485.06;;;6.97;91.30
82728;BME280;72459;50.110;8.750;2023-12-22T07:53:11;99496.53;;;7.00;91.33
82728;BME280;72459;50.110;8.750;2023-12-22T07:55:36;99487.06;;;7.04;87.29
82728;BME280;72459;50.110;8.750;2023-12-22T07:58:04;99487.28;;;7.10;92.38
82728;BME280;72459;50.110;8.750;2023-12-22T08:00:29;99478.63;;;7.11;91.79
82728;BME280;72459;50.110;8.750;2023-12-22T08:02:55;99474.28;;;7.12;87.10
82728;BME280;72459;50.110;8.750;2023-12-22T08:05:20;99475.19;;;7.12;87.18
82728;BME280;72459;50.110;8.750;2023-12-22T08:07:46;99488.97;;;7.08;83.86
82728;BME280;72459;50.110;8.750;2023-12-22T08:10:12;99497.63;;;7.07;90.46
82728;BME280;72459;50.110;8.750;2023-12-22T08:12:37;99488.84;;;7.05;91.35
82728;BME280;72459;50.110;8.750;2023-12-22T08:15:03;99483.19;;;6.93;87.93
82728;BME280;72459;50.110;8.750;2023-12-22T08:17:29;99487.28;;;6.86;85.81
82728;BME280;72459;50.110;8.750;2023-12-22T08:19:54;99493.47;;;6.88;91.27
82728;BME280;72459;50.110;8.750;2023-12-22T08:22:19;99501.13;;;6.84;88.93
82728;BME280;72459;50.110;8.750;2023-12-22T08:24:45;99492.41;;;6.83;90.13
82728;BME280;72459;50.110;8.750;2023-12-22T08:27:10;99493.28;;;6.84;91.68
82728;BME280;72459;50.110;8.750;2023-12-22T08:29:36;99490.56;;;6.81;89.32
82728;BME280;72459;50.110;8.750;2023-12-22T08:32:01;99476.69;;;6.82;89.54
82728;BME280;72459;50.110;8.750;2023-12-22T08:34:27;99492.13;;;6.76;89.19
82728;BME280;72459;50.110;8.750;2023-12-22T08:36:53;99494.13;;;6.83;92.44
82728;BME280;72459;50.110;8.750;2023-12-22T08:39:18;99498.41;;;6.81;91.78
82728;BME280;72459;50.110;8.750;2023-12-22T08:41:45;99495.75;;;6.79;91.25
82728;BME280;72459;50.110;8.750;2023-12-22T08:44:10;99497.53;;;6.80;92.78
82728;BME280;72459;50.110;8.750;2023-12-22T08:46:36;99514.06;;;6.81;90.13
82728;BME280;72459;50.110;8.750;2023-12-22T08:49:01;99500.97;;;6.79;90.01
82728;BME280;72459;50.110;8.750;2023-12-22T08:51:28;99521.97;;;6.82;91.93
82728;BME280;72459;50.110;8.750;2023-12-22T08:53:54;99519.34;;;6.82;92.65
82728;BME280;72459;50.110;8.750;2023-12-22T08:56:21;99521.97;;;6.82;91.21
82728;BME280;72459;50.110;8.750;2023-12-22T08:58:46;99520.19;;;6.81;91.09
82728;BME280;72459;50.110;8.750;2023-12-22T09:01:16;99507.25;;;6.84;91.84
82728;BME280;72459;50.110;8.750;2023-12-22T09:03:41;99523.84;;;6.86;92.66
82728;BME280;72459;50.110;8.750;2023-12-22T09:06:13;99523.84;;;6.86;92.33
82728;BME280;72459;50.110;8.750;2023-12-22T09:08:38;99532.47;;;6.84;92.29
82728;BME280;72459;50.110;8.750;2023-12-22T09:11:04;99529.69;;;6.79;88.13
82728;BME280;72459;50.110;8.750;2023-12-22T09:13:29;99541.06;;;6.81;88.40
82728;BME280;72459;50.110;8.750;2023-12-22T09:15:56;99524.28;;;6.75;86.85
82728;BME280;72459;50.110;8.750;2023-12-22T09:18:22;99514.25;;;6.85;91.56
82728;BME280;72459;50.110;8.750;2023-12-22T09:20:48;99513.31;;;6.83;90.56
82728;BME280;72459;50.110;8.750;2023-12-22T09:23:14;99514.13;;;6.82;90.47
82728;BME280;72459;50.110;8.750;2023-12-22T09:25:39;99516.75;;;6.82;90.47
82728;BME280;72459;50.110;8.750;2023-12-22T09:28:05;99526.31;;;6.82;91.12
82728;BME280;72459;50.110;8.750;2023-12-22T09:30:31;99533.19;;;6.80;90.84
82728;BME280;72459;50.110;8.750;2023-12-22T09:32:57;99540.78;;;6.74;90.36
82728;BME280;72459;50.110;8.750;2023-12-22T09:35:22;99558.72;;;6.64;89.71
82728;BME280;72459;50.110;8.750;2023-12-22T09:37:50;99548.88;;;6.57;89.82
82728;BME280;72459;50.110;8.750;2023-12-22T09:40:15;99542.16;;;6.64;90.17
82728;BME280;72459;50.110;8.750;2023-12-22T09:42:41;99532.84;;;6.71;91.95
82728;BME280;72459;50.110;8.750;2023-12-22T09:45:10;99531.41;;;6.79;93.07
82728;BME280;72459;50.110;8.750;2023-12-22T09:47:37;99531.63;;;6.85;93.49
82728;BME280;72459;50.110;8.750;2023-12-22T09:50:04;99531.75;;;6.88;93.28
82728;BME280;72459;50.110;8.750;2023-12-22T09:52:31;99523.91;;;6.88;92.92
82728;BME280;72459;50.110;8.750;2023-12-22T09:54:58;99515.97;;;6.85;92.08
82728;BME280;72459;50.110;8.750;2023-12-22T09:57:23;99501.19;;;6.85;91.83
82728;BME280;72459;50.110;8.750;2023-12-22T09:59:51;99500.81;;;6.98;93.23
82728;BME280;72459;50.110;8.750;2023-12-22T10:02:17;99509.97;;;6.87;89.89
82728;BME280;72459;50.110;8.750;2023-12-22T10:04:43;99504.97;;;6.93;90.71
82728;BME280;72459;50.110;8.750;2023-12-22T10:07:09;99493.97;;;7.02;92.38
82728;BME280;72459;50.110;8.750;2023-12-22T10:09:39;99487.97;;;7.05;92.98
82728;BME280;72459;50.110;8.750;2023-12-22T10:12:06;99481.63;;;6.98;89.92
82728;BME280;72459;50.110;8.750;2023-12-22T10:14:34;99473.41;;;7.11;91.04
82728;BME280;72459;50.110;8.750;2023-12-22T10:17:02;99483.91;;;7.37;94.05
82728;BME280;72459;50.110;8.750;2023-12-22T10:19:27;99479.84;;;7.45;93.68
82728;BME280;72459;50.110;8.750;2023-12-22T10:21:53;99472.34;;;7.55;93.75
82728;BME280;72459;50.110;8.750;2023-12-22T10:27:02;99472.66;;;7.64;93.57
82728;BME280;72459;50.110;8.750;2023-12-22T10:29:27;99458.75;;;7.66;92.59
82728;BME280;72459;50.110;8.750;2023-12-22T10:31:52;99454.84;;;7.53;91.13
82728;BME280;72459;50.110;8.750;2023-12-22T10:34:18;99448.97;;;7.60;92.66
82728;BME280;72459;50.110;8.750;2023-12-22T10:36:44;99434.75;;;7.52;91.83
82728;BME280;72459;50.110;8.750;2023-12-22T10:39:09;99431.53;;;7.34;88.85
82728;BME280;72459;50.110;8.750;2023-12-22T10:41:35;99436.06;;;7.39;90.13
82728;BME280;72459;50.110;8.750;2023-12-22T10:44:00;99422.00;;;7.36;89.63
82728;BME280;72459;50.110;8.750;2023-12-22T10:46:26;99402.88;;;7.37;92.69
82728;BME280;72459;50.110;8.750;2023-12-22T10:48:56;99405.19;;;7.27;88.57
82728;BME280;72459;50.110;8.750;2023-12-22T10:51:21;99398.34;;;7.31;88.72
82728;BME280;72459;50.110;8.750;2023-12-22T10:53:46;99397.84;;;7.43;92.62
82728;BME280;72459;50.110;8.750;2023-12-22T10:56:12;99397.13;;;7.47;91.96
82728;BME280;72459;50.110;8.750;2023-12-22T10:58:37;99397.13;;;7.47;89.38
82728;BME280;72459;50.110;8.750;2023-12-22T11:01:06;99389.47;;;7.53;92.46
82728;BME280;72459;50.110;8.750;2023-12-22T11:03:33;99386.13;;;7.57;91.29
82728;BME280;72459;50.110;8.750;2023-12-22T11:06:03;99376.56;;;7.57;90.09
82728;BME280;72459;50.110;8.750;2023-12-22T11:08:29;99377.44;;;7.58;89.58
82728;BME280;72459;50.110;8.750;2023-12-22T11:10:58;99378.56;;;7.66;91.02
82728;BME280;72459;50.110;8.750;2023-12-22T11:13:29;99374.91;;;7.61;88.09
82728;BME280;72459;50.110;8.750;2023-12-22T11:15:56;99370.72;;;7.66;87.82
82728;BME280;72459;50.110;8.750;2023-12-22T11:18:22;99359.44;;;7.67;88.70
82728;BME280;72459;50.110;8.750;2023-12-22T11:20:50;99353.34;;;7.68;89.25
82728;BME280;72459;50.110;8.750;2023-12-22T11:23:17;99357.00;;;7.73;88.68
82728;BME280;72459;50.110;8.750;2023-12-22T11:25:44;99356.16;;;7.74;90.61
82728;BME280;72459;50.110;8.750;2023-12-22T11:28:18;99345.75;;;7.76;90.68
82728;BME280;72459;50.110;8.750;2023-12-22T11:30:44;99339.63;;;7.75;88.06
82728;BME280;72459;50.110;8.750;2023-12-22T11:33:11;99336.28;;;7.79;89.48
82728;BME280;72459;50.110;8.750;2023-12-22T11:35:38;99330.22;;;7.80;85.94
82728;BME280;72459;50.110;8.750;2023-12-22T11:38:04;99331.41;;;7.90;90.55
82728;BME280;72459;50.110;8.750;2023-12-22T11:40:31;99322.03;;;7.98;92.96
82728;BME280;72459;50.110;8.750;2023-12-22T11:42:57;99311.41;;;7.92;88.01
82728;BME280;72459;50.110;8.750;2023-12-22T11:45:23;99319.28;;;7.93;89.87
82728;BME280;72459;50.110;8.750;2023-12-22T11:47:50;99312.38;;;7.95;90.94
82728;BME280;72459;50.110;8.750;2023-12-22T11:50:30;99309.81;;;7.97;90.79
82728;BME280;72459;50.110;8.750;2023-12-22T11:52:55;99307.41;;;8.05;91.77
82728;BME280;72459;50.110;8.750;2023-12-22T11:58:39;99305.66;;;8.04;90.43
82728;BME280;72459;50.110;8.750;2023-12-22T12:01:10;99305.66;;;8.04;90.72
82728;BME280;72459;50.110;8.750;2023-12-22T12:03:41;99291.75;;;8.06;91.58
82728;BME280;72459;50.110;8.750;2023-12-22T12:08:36;99285.47;;;8.00;92.12
82728;BME280;72459;50.110;8.750;2023-12-22T12:11:02;99268.91;;;8.01;92.97
82728;BME280;72459;50.110;8.750;2023-12-22T12:13:30;99261.91;;;8.00;92.30
82728;BME280;72459;50.110;8.750;2023-12-22T12:15:58;99265.47;;;8.02;93.33
82728;BME280;72459;50.110;8.750;2023-12-22T12:18:27;99270.59;;;7.99;92.52
82728;BME280;72459;50.110;8.750;2023-12-22T12:20:53;99254.03;;;7.98;89.37
82728;BME280;72459;50.110;8.750;2023-12-22T12:23:18;99256.66;;;7.98;92.62
82728;BME280;72459;50.110;8.750;2023-12-22T12:25:44;99267.06;;;7.97;93.41
82728;BME280;72459;50.110;8.750;2023-12-22T12:28:09;99257.34;;;7.92;92.75
82728;BME280;72459;50.110;8.750;2023-12-22T12:30:37;99264.28;;;7.90;93.40
82728;BME280;72459;50.110;8.750;2023-12-22T12:33:10;99268.56;;;7.88;93.37
82728;BME280;72459;50.110;8.750;2023-12-22T12:35:40;99270.28;;;7.88;93.30
82728;BME280;72459;50.110;8.750;2023-12-22T12:38:05;99279.84;;;7.86;93.46
82728;BME280;72459;50.110;8.750;2023-12-22T12:40:31;99267.81;;;7.92;93.68
82728;BME280;72459;50.110;8.750;2023-12-22T12:42:59;99290.47;;;7.92;93.27
82728;BME280;72459;50.110;8.750;2023-12-22T12:45:26;99283.38;;;7.88;91.76
82728;BME280;72459;50.110;8.750;2023-12-22T12:48:04;99284.34;;;7.91;92.43
82728;BME280;72459;50.110;8.750;2023-12-22T12:50:29;99281.75;;;7.91;92.70
82728;BME280;72459;50.110;8.750;2023-12-22T12:52:57;99279.88;;;7.87;91.11
82728;BME280;72459;50.110;8.750;2023-12-22T12:55:23;99279.03;;;7.88;91.87
82728;BME280;72459;50.110;8.750;2023-12-22T12:57:52;99274.56;;;7.84;90.06
82728;BME280;72459;50.110;8.750;2023-12-22T13:00:28;99279.03;;;7.88;92.69
82728;BME280;72459;50.110;8.750;2023-12-22T13:02:55;99290.28;;;7.86;91.27
82728;BME280;72459;50.110;8.750;2023-12-22T13:05:22;99287.63;;;7.84;90.42
82728;BME280;72459;50.110;8.750;2023-12-22T13:07:48;99282.50;;;7.87;91.99
82728;BME280;72459;50.110;8.750;2023-12-22T13:10:23;99279.13;;;7.91;93.57
82728;BME280;72459;50.110;8.750;2023-12-22T13:12:50;99281.75;;;7.91;94.07
82728;BME280;72459;50.110;8.750;2023-12-22T13:15:16;99281.66;;;7.88;93.95
82728;BME280;72459;50.110;8.750;2023-12-22T13:17:43;99286.03;;;7.89;93.92
82728;BME280;72459;50.110;8.750;2023-12-22T13:20:09;99294.91;;;7.94;94.92
82728;BME280;72459;50.110;8.750;2023-12-22T13:22:35;99295.00;;;7.98;95.33
82728;BME280;72459;50.110;8.750;2023-12-22T13:25:00;99287.09;;;7.96;94.94
82728;BME280;72459;50.110;8.750;2023-12-22T13:27:26;99283.69;;;7.99;95.00
82728;BME280;72459;50.110;8.750;2023-12-22T13:29:51;99284.63;;;8.01;95.41